createdAt,value
2019-01-15T00:00:03.737Z,5.37
2019-01-15T00:00:42.604Z,5.30
2019-01-15T00:01:21.294Z,6.10
2019-01-15T00:02:00.081Z,5.80
2019-01-15T00:02:38.807Z,5.10
2019-01-15T00:03:17.549Z,5.60
2019-01-15T00:03:56.317Z,5.80
2019-01-15T00:04:35.116Z,4.50
2019-01-15T00:05:13.834Z,5.63
2019-01-15T00:05:52.602Z,5.97
2019-01-15T00:06:31.320Z,5.42
2019-01-15T00:07:10.152Z,5.35
2019-01-15T00:07:48.808Z,6.12
2019-01-15T00:08:27.539Z,5.37
2019-01-15T00:09:06.860Z,5.23
2019-01-15T00:09:45.594Z,5.97
2019-01-15T00:10:24.427Z,5.60
2019-01-15T00:11:03.178Z,5.22
2019-01-15T00:11:41.893Z,5.13
2019-01-15T00:12:20.616Z,5.30
2019-01-15T00:12:59.419Z,5.62
2019-01-15T00:13:38.261Z,4.90
2019-01-15T00:14:16.994Z,5.50
2019-01-15T00:14:55.655Z,5.65
2019-01-15T00:15:34.323Z,5.62
2019-01-15T00:16:13.072Z,5.60
2019-01-15T00:16:51.741Z,6.10
2019-01-15T00:17:30.440Z,6.00
2019-01-15T00:18:09.241Z,6.00
2019-01-15T00:18:47.916Z,5.42
2019-01-15T00:19:26.645Z,5.40
2019-01-15T00:20:05.330Z,5.85
2019-01-15T00:20:44.072Z,5.55
2019-01-15T00:21:22.752Z,4.78
2019-01-15T00:22:01.395Z,5.17
2019-01-15T00:22:40.198Z,5.80
2019-01-15T00:23:19.009Z,5.10
2019-01-15T00:23:58.053Z,5.30
2019-01-15T00:24:37.794Z,6.00
2019-01-15T00:25:16.590Z,5.37
2019-01-15T00:25:55.319Z,5.33
2019-01-15T00:26:34.093Z,5.70
2019-01-15T00:27:12.769Z,5.30
2019-01-15T00:27:51.458Z,5.87
2019-01-15T00:28:30.061Z,6.40
2019-01-15T00:29:08.802Z,6.13
2019-01-15T00:29:47.504Z,5.83
2019-01-15T00:30:26.220Z,5.40
2019-01-15T00:31:05.309Z,6.13
2019-01-15T00:31:44.021Z,6.20
2019-01-15T00:32:22.723Z,6.10
2019-01-15T00:33:01.423Z,5.77
2019-01-15T00:33:40.190Z,5.50
2019-01-15T00:34:18.871Z,5.80
2019-01-15T00:34:57.643Z,5.33
2019-01-15T00:35:36.436Z,5.95
2019-01-15T00:36:15.210Z,5.80
2019-01-15T00:36:53.772Z,5.20
2019-01-15T00:37:32.540Z,5.83
2019-01-15T00:38:11.336Z,5.45
2019-01-15T00:38:50.026Z,5.80
2019-01-15T00:39:28.755Z,6.10
2019-01-15T00:40:08.705Z,5.83
2019-01-15T00:40:47.467Z,5.87
2019-01-15T00:41:26.268Z,5.20
2019-01-15T00:42:04.970Z,5.50
2019-01-15T00:42:43.722Z,5.83
2019-01-15T00:43:22.440Z,6.00
2019-01-15T00:44:01.163Z,5.70
2019-01-15T00:44:39.888Z,5.97
2019-01-15T00:45:18.540Z,5.90
2019-01-15T00:45:57.392Z,6.20
2019-01-15T00:46:36.096Z,5.87
2019-01-15T00:47:14.762Z,5.90
2019-01-15T00:47:53.515Z,6.60
2019-01-15T00:48:32.278Z,5.70
2019-01-15T00:49:11.024Z,5.33
2019-01-15T00:49:49.821Z,6.70
2019-01-15T00:50:28.567Z,6.23
2019-01-15T00:51:07.222Z,6.20
2019-01-15T00:51:45.845Z,5.87
2019-01-15T00:52:24.465Z,6.40
2019-01-15T00:53:03.341Z,6.67
2019-01-15T00:53:42.041Z,6.05
2019-01-15T00:54:20.712Z,6.13
2019-01-15T00:54:59.284Z,5.70
2019-01-15T00:55:37.968Z,6.37
2019-01-15T00:56:16.711Z,5.87
2019-01-15T00:56:55.383Z,6.10
2019-01-15T00:57:34.128Z,6.13
2019-01-15T00:58:12.849Z,6.80
2019-01-15T00:58:51.509Z,6.63
2019-01-15T00:59:30.287Z,6.87
2019-01-15T01:00:11.411Z,6.00
2019-01-15T01:00:50.151Z,5.77
2019-01-15T01:01:28.802Z,6.30
2019-01-15T01:02:07.468Z,6.90
2019-01-15T01:02:46.099Z,6.20
2019-01-15T01:03:24.772Z,6.37
2019-01-15T01:04:03.407Z,6.50
2019-01-15T01:04:42.171Z,6.20
2019-01-15T01:05:20.828Z,5.80
2019-01-15T01:05:59.492Z,5.80
2019-01-15T01:06:38.195Z,6.90
2019-01-15T01:07:16.905Z,6.70
2019-01-15T01:07:55.670Z,6.03
2019-01-15T01:08:34.440Z,6.20
2019-01-15T01:09:14.532Z,5.93
2019-01-15T01:09:53.181Z,6.50
2019-01-15T01:10:31.864Z,7.20
2019-01-15T01:11:10.672Z,7.10
2019-01-15T01:11:49.362Z,6.87
2019-01-15T01:12:28.119Z,6.20
2019-01-15T01:13:07.046Z,7.00
2019-01-15T01:13:45.674Z,6.50
2019-01-15T01:14:24.512Z,7.67
2019-01-15T01:15:03.228Z,6.73
2019-01-15T01:15:42.076Z,6.20
2019-01-15T01:16:20.720Z,6.70
2019-01-15T01:16:59.400Z,6.80
2019-01-15T01:17:38.084Z,7.40
2019-01-15T01:18:16.703Z,7.53
2019-01-15T01:18:55.498Z,7.33
2019-01-15T01:19:34.225Z,6.97
2019-01-15T01:20:14.415Z,7.17
2019-01-15T01:20:53.268Z,6.63
2019-01-15T01:21:31.902Z,6.90
2019-01-15T01:22:10.634Z,7.23
2019-01-15T01:22:49.399Z,7.20
2019-01-15T01:23:28.137Z,7.00
2019-01-15T01:24:07.071Z,6.80
2019-01-15T01:24:45.847Z,7.17
2019-01-15T01:25:24.533Z,6.30
2019-01-15T01:26:03.290Z,6.30
2019-01-15T01:26:41.907Z,7.50
2019-01-15T01:27:20.696Z,6.80
2019-01-15T01:27:59.644Z,6.80
2019-01-15T01:28:38.402Z,6.80
2019-01-15T01:29:17.095Z,6.67
2019-01-15T01:29:55.915Z,7.27
2019-01-15T01:30:34.607Z,7.03
2019-01-15T01:31:13.395Z,7.03
2019-01-15T01:31:52.141Z,7.27
2019-01-15T01:32:30.988Z,8.07
2019-01-15T01:33:09.724Z,6.70
2019-01-15T01:33:48.454Z,7.43
2019-01-15T01:34:27.259Z,7.80
2019-01-15T01:35:06.188Z,6.93
2019-01-15T01:35:44.850Z,7.70
2019-01-15T01:36:23.631Z,6.23
2019-01-15T01:37:02.394Z,7.77
2019-01-15T01:37:41.051Z,7.10
2019-01-15T01:38:19.866Z,7.80
2019-01-15T01:38:58.592Z,8.07
2019-01-15T01:39:37.235Z,7.70
2019-01-15T01:40:18.265Z,7.13
2019-01-15T01:40:56.942Z,7.83
2019-01-15T01:41:35.576Z,7.77
2019-01-15T01:42:14.995Z,8.53
2019-01-15T01:42:53.656Z,9.37
2019-01-15T01:43:32.457Z,8.07
2019-01-15T01:44:11.172Z,7.40
2019-01-15T01:44:49.909Z,7.47
2019-01-15T01:45:28.585Z,7.67
2019-01-15T01:46:07.365Z,7.50
2019-01-15T01:46:46.086Z,7.17
2019-01-15T01:47:24.836Z,7.20
2019-01-15T01:48:03.479Z,6.87
2019-01-15T01:48:42.131Z,7.43
2019-01-15T01:49:20.883Z,6.83
2019-01-15T01:49:59.672Z,7.17
2019-01-15T01:50:38.451Z,8.07
2019-01-15T01:51:17.069Z,6.60
2019-01-15T01:51:55.769Z,7.33
2019-01-15T01:52:34.528Z,7.20
2019-01-15T01:53:13.513Z,6.47
2019-01-15T01:53:52.128Z,6.60
2019-01-15T01:54:30.853Z,7.37
2019-01-15T01:55:10.084Z,7.20
2019-01-15T01:55:48.760Z,7.27
2019-01-15T01:56:27.547Z,7.00
2019-01-15T01:57:06.232Z,7.27
2019-01-15T01:57:45.006Z,7.73
2019-01-15T01:58:23.628Z,7.03
2019-01-15T01:59:02.355Z,6.63
2019-01-15T01:59:41.066Z,7.20
2019-01-15T02:00:23.919Z,6.80
2019-01-15T02:01:02.658Z,7.50
2019-01-15T02:01:41.273Z,7.23
2019-01-15T02:02:20.038Z,6.47
2019-01-15T02:02:58.900Z,7.00
2019-01-15T02:03:37.680Z,7.57
2019-01-15T02:04:16.398Z,6.80
2019-01-15T02:04:55.067Z,7.63
2019-01-15T02:05:33.689Z,6.87
2019-01-15T02:06:12.359Z,6.73
2019-01-15T02:06:51.216Z,7.20
2019-01-15T02:07:30.043Z,7.33
2019-01-15T02:08:08.641Z,6.90
2019-01-15T02:08:47.335Z,7.80
2019-01-15T02:09:25.981Z,6.07
2019-01-15T02:10:04.659Z,6.77
2019-01-15T02:10:43.390Z,7.37
2019-01-15T02:11:22.061Z,6.67
2019-01-15T02:12:00.880Z,7.00
2019-01-15T02:12:39.719Z,6.67
2019-01-15T02:13:18.516Z,7.20
2019-01-15T02:13:57.260Z,7.20
2019-01-15T02:14:35.944Z,7.40
2019-01-15T02:15:16.191Z,6.70
2019-01-15T02:15:54.971Z,7.17
2019-01-15T02:16:33.656Z,7.30
2019-01-15T02:17:12.325Z,7.23
2019-01-15T02:17:51.029Z,7.37
2019-01-15T02:18:29.677Z,6.80
2019-01-15T02:19:08.354Z,6.93
2019-01-15T02:19:47.060Z,7.10
2019-01-15T02:20:25.781Z,7.20
2019-01-15T02:21:04.512Z,7.00
2019-01-15T02:21:43.195Z,6.10
2019-01-15T02:22:21.856Z,6.90
2019-01-15T02:23:00.612Z,7.23
2019-01-15T02:23:39.422Z,6.73
2019-01-15T02:24:18.464Z,7.13
2019-01-15T02:24:57.206Z,7.03
2019-01-15T02:25:35.873Z,6.10
2019-01-15T02:26:14.924Z,7.10
2019-01-15T02:26:53.689Z,6.90
2019-01-15T02:27:32.604Z,7.17
2019-01-15T02:28:11.303Z,7.00
2019-01-15T02:28:49.990Z,6.97
2019-01-15T02:29:28.705Z,6.67
2019-01-15T02:30:07.681Z,6.70
2019-01-15T02:30:46.449Z,6.83
2019-01-15T02:31:25.246Z,6.43
2019-01-15T02:32:03.952Z,7.53
2019-01-15T02:32:42.752Z,6.23
2019-01-15T02:33:21.489Z,7.23
2019-01-15T02:34:00.346Z,7.23
2019-01-15T02:34:38.986Z,7.33
2019-01-15T02:35:17.673Z,7.30
2019-01-15T02:35:56.435Z,7.50
2019-01-15T02:36:35.051Z,7.67
2019-01-15T02:37:13.814Z,7.33
2019-01-15T02:37:52.491Z,6.90
2019-01-15T02:38:31.204Z,6.70
2019-01-15T02:39:11.436Z,7.57
2019-01-15T02:39:50.223Z,7.37
2019-01-15T02:40:28.843Z,7.10
2019-01-15T02:41:07.616Z,6.73
2019-01-15T02:41:46.454Z,7.53
2019-01-15T02:42:25.112Z,6.83
2019-01-15T02:43:03.806Z,6.40
2019-01-15T02:43:42.695Z,7.47
2019-01-15T02:44:21.297Z,7.03
2019-01-15T02:45:00.061Z,7.20
2019-01-15T02:45:38.874Z,7.30
2019-01-15T02:46:17.592Z,7.77
2019-01-15T02:46:56.297Z,7.70
2019-01-15T02:47:34.988Z,7.23
2019-01-15T02:48:14.613Z,6.93
2019-01-15T02:48:53.252Z,7.20
2019-01-15T02:49:32.034Z,7.80
2019-01-15T02:50:12.548Z,8.33
2019-01-15T02:50:51.459Z,7.70
2019-01-15T02:51:30.097Z,7.73
2019-01-15T02:52:08.893Z,7.43
2019-01-15T02:52:47.492Z,7.63
2019-01-15T02:53:26.160Z,7.90
2019-01-15T02:54:04.968Z,7.10
2019-01-15T02:54:43.678Z,8.20
2019-01-15T02:55:22.447Z,7.53
2019-01-15T02:56:01.228Z,8.53
2019-01-15T02:56:39.974Z,7.30
2019-01-15T02:57:18.678Z,6.93
2019-01-15T02:57:57.352Z,8.20
2019-01-15T02:58:36.072Z,7.97
2019-01-15T02:59:14.867Z,7.73
2019-01-15T02:59:53.546Z,7.97
2019-01-15T03:00:32.271Z,7.80
2019-01-15T03:01:11.032Z,7.43
2019-01-15T03:01:49.807Z,7.07
2019-01-15T03:02:28.519Z,7.23
2019-01-15T03:03:07.843Z,7.57
2019-01-15T03:03:46.522Z,8.57
2019-01-15T03:04:25.300Z,8.50
2019-01-15T03:05:04.046Z,7.60
2019-01-15T03:05:42.789Z,7.80
2019-01-15T03:06:21.504Z,8.00
2019-01-15T03:07:00.176Z,8.23
2019-01-15T03:07:38.953Z,8.10
2019-01-15T03:08:17.760Z,7.80
2019-01-15T03:08:56.594Z,8.80
2019-01-15T03:09:35.386Z,8.07
2019-01-15T03:10:16.268Z,7.87
2019-01-15T03:10:55.097Z,7.67
2019-01-15T03:11:33.714Z,8.57
2019-01-15T03:12:12.465Z,8.63
2019-01-15T03:12:55.673Z,7.80
2019-01-15T03:13:32.318Z,7.67
2019-01-15T03:14:11.119Z,8.70
2019-01-15T03:14:49.807Z,8.10
2019-01-15T03:15:28.803Z,8.00
2019-01-15T03:16:07.521Z,7.73
2019-01-15T03:16:46.150Z,7.70
2019-01-15T03:17:24.796Z,7.27
2019-01-15T03:18:03.518Z,7.57
2019-01-15T03:18:42.226Z,8.00
2019-01-15T03:19:20.850Z,7.80
2019-01-15T03:19:59.489Z,7.80
2019-01-15T03:20:38.196Z,8.50
2019-01-15T03:21:16.997Z,7.83
2019-01-15T03:21:55.724Z,7.53
2019-01-15T03:22:34.485Z,8.17
2019-01-15T03:23:13.230Z,7.83
2019-01-15T03:23:51.925Z,7.67
2019-01-15T03:24:30.658Z,7.60
2019-01-15T03:25:09.687Z,8.00
2019-01-15T03:25:48.399Z,7.70
2019-01-15T03:26:27.153Z,7.00
2019-01-15T03:27:05.862Z,7.73
2019-01-15T03:27:44.461Z,8.43
2019-01-15T03:28:23.267Z,7.60
2019-01-15T03:29:01.934Z,8.70
2019-01-15T03:29:40.729Z,8.10
2019-01-15T03:30:24.654Z,8.37
2019-01-15T03:31:03.387Z,8.13
2019-01-15T03:31:42.138Z,7.90
2019-01-15T03:32:20.933Z,7.30
2019-01-15T03:32:59.603Z,8.13
2019-01-15T03:33:38.260Z,7.53
2019-01-15T03:34:16.945Z,7.57
2019-01-15T03:34:55.798Z,7.80
2019-01-15T03:35:34.400Z,7.70
2019-01-15T03:36:13.257Z,8.10
2019-01-15T03:36:51.997Z,7.57
2019-01-15T03:37:30.666Z,8.47
2019-01-15T03:38:09.426Z,7.20
2019-01-15T03:38:48.254Z,7.80
2019-01-15T03:39:26.835Z,7.47
2019-01-15T03:40:05.641Z,7.50
2019-01-15T03:40:44.393Z,8.33
2019-01-15T03:41:23.144Z,7.40
2019-01-15T03:42:01.915Z,7.27
2019-01-15T03:42:40.746Z,7.37
2019-01-15T03:43:19.519Z,7.40
2019-01-15T03:43:58.145Z,7.60
2019-01-15T03:44:36.818Z,8.33
2019-01-15T03:45:15.594Z,7.83
2019-01-15T03:45:54.274Z,8.03
2019-01-15T03:46:32.912Z,7.63
2019-01-15T03:47:11.727Z,6.93
2019-01-15T03:47:50.451Z,8.20
2019-01-15T03:48:29.074Z,6.97
2019-01-15T03:49:07.793Z,8.37
2019-01-15T03:49:46.508Z,7.30
2019-01-15T03:50:25.230Z,7.67
2019-01-15T03:51:03.997Z,7.33
2019-01-15T03:51:42.666Z,8.40
2019-01-15T03:52:21.368Z,8.53
2019-01-15T03:53:00.090Z,7.20
2019-01-15T03:53:38.821Z,7.70
2019-01-15T03:54:17.600Z,7.93
2019-01-15T03:54:56.331Z,8.17
2019-01-15T03:55:35.026Z,8.00
2019-01-15T03:56:14.586Z,7.17
2019-01-15T03:56:53.527Z,7.40
2019-01-15T03:57:32.358Z,7.30
2019-01-15T03:58:11.082Z,7.60
2019-01-15T03:58:49.691Z,7.73
2019-01-15T03:59:28.371Z,7.70
2019-01-15T04:00:08.098Z,7.40
2019-01-15T04:00:46.771Z,7.03
2019-01-15T04:01:25.486Z,8.00
2019-01-15T04:02:04.349Z,8.60
2019-01-15T04:02:43.182Z,7.10
2019-01-15T04:03:21.853Z,7.57
2019-01-15T04:04:00.482Z,7.60
2019-01-15T04:04:39.276Z,8.10
2019-01-15T04:05:18.695Z,8.27
2019-01-15T04:05:57.319Z,7.60
2019-01-15T04:06:36.088Z,7.80
2019-01-15T04:07:14.908Z,7.27
2019-01-15T04:07:58.035Z,7.63
2019-01-15T04:08:36.658Z,7.30
2019-01-15T04:09:15.288Z,7.07
2019-01-15T04:09:54.088Z,7.30
2019-01-15T04:10:32.752Z,7.47
2019-01-15T04:11:11.534Z,7.90
2019-01-15T04:11:50.198Z,7.50
2019-01-15T04:12:28.877Z,7.40
2019-01-15T04:13:11.481Z,7.30
2019-01-15T04:13:47.605Z,7.30
2019-01-15T04:14:26.361Z,8.23
2019-01-15T04:15:05.509Z,8.00
2019-01-15T04:15:44.192Z,7.83
2019-01-15T04:16:22.970Z,7.00
2019-01-15T04:17:01.669Z,7.70
2019-01-15T04:17:40.340Z,7.33
2019-01-15T04:18:19.083Z,7.33
2019-01-15T04:18:57.845Z,7.20
2019-01-15T04:19:36.497Z,8.30
2019-01-15T04:20:16.881Z,7.20
2019-01-15T04:20:55.628Z,7.20
2019-01-15T04:21:34.313Z,6.60
2019-01-15T04:22:12.976Z,7.40
2019-01-15T04:22:51.680Z,7.10
2019-01-15T04:23:30.339Z,7.67
2019-01-15T04:24:09.295Z,7.27
2019-01-15T04:24:47.993Z,7.10
2019-01-15T04:25:26.797Z,7.53
2019-01-15T04:26:05.543Z,7.47
2019-01-15T04:26:44.291Z,7.60
2019-01-15T04:27:23.012Z,7.27
2019-01-15T04:28:01.745Z,7.73
2019-01-15T04:28:40.405Z,7.53
2019-01-15T04:29:19.139Z,7.27
2019-01-15T04:29:57.831Z,7.07
2019-01-15T04:30:36.475Z,7.83
2019-01-15T04:31:15.248Z,7.30
2019-01-15T04:31:53.918Z,7.60
2019-01-15T04:32:32.564Z,7.50
2019-01-15T04:33:11.247Z,7.30
2019-01-15T04:33:50.017Z,7.50
2019-01-15T04:34:29.036Z,7.70
2019-01-15T04:35:08.408Z,7.03
2019-01-15T04:35:47.065Z,7.20
2019-01-15T04:36:25.855Z,7.97
2019-01-15T04:37:04.610Z,7.07
2019-01-15T04:37:43.423Z,7.80
2019-01-15T04:38:22.126Z,7.13
2019-01-15T04:39:00.840Z,8.03
2019-01-15T04:39:39.586Z,7.20
2019-01-15T04:40:23.175Z,7.60
2019-01-15T04:41:01.825Z,7.47
2019-01-15T04:41:40.494Z,7.27
2019-01-15T04:42:19.135Z,7.77
2019-01-15T04:42:57.939Z,7.60
2019-01-15T04:43:36.551Z,7.47
2019-01-15T04:44:15.315Z,7.37
2019-01-15T04:44:53.911Z,7.33
2019-01-15T04:45:32.757Z,7.40
2019-01-15T04:46:11.420Z,7.50
2019-01-15T04:46:50.086Z,7.83
2019-01-15T04:47:28.786Z,7.50
2019-01-15T04:48:10.942Z,7.20
2019-01-15T04:48:54.989Z,6.80
2019-01-15T04:49:33.742Z,7.60
2019-01-15T04:50:12.428Z,7.50
2019-01-15T04:50:51.716Z,6.83
2019-01-15T04:51:30.416Z,7.60
2019-01-15T04:52:09.196Z,7.53
2019-01-15T04:52:51.317Z,6.90
2019-01-15T04:53:29.998Z,6.67
2019-01-15T04:54:08.740Z,7.60
2019-01-15T04:54:47.460Z,7.90
2019-01-15T04:55:26.127Z,7.20
2019-01-15T04:56:04.890Z,7.87
2019-01-15T04:56:43.747Z,6.73
2019-01-15T04:57:22.418Z,7.20
2019-01-15T04:58:01.123Z,7.00
2019-01-15T04:58:40.100Z,7.33
2019-01-15T04:59:18.995Z,8.20
2019-01-15T04:59:57.693Z,7.57
2019-01-15T05:00:36.528Z,7.33
2019-01-15T05:01:15.241Z,7.00
2019-01-15T05:01:54.015Z,7.63
2019-01-15T05:02:32.798Z,7.70
2019-01-15T05:03:14.702Z,7.17
2019-01-15T05:03:53.515Z,7.43
2019-01-15T05:04:32.257Z,7.23
2019-01-15T05:05:11.470Z,7.07
2019-01-15T05:05:50.063Z,7.40
2019-01-15T05:06:28.783Z,6.97
2019-01-15T05:07:07.514Z,7.07
2019-01-15T05:07:46.274Z,7.40
2019-01-15T05:08:24.965Z,7.67
2019-01-15T05:09:04.047Z,6.90
2019-01-15T05:09:42.799Z,7.60
2019-01-15T05:10:21.505Z,7.60
2019-01-15T05:11:00.168Z,6.90
2019-01-15T05:11:39.030Z,7.50
2019-01-15T05:12:17.811Z,6.73
2019-01-15T05:12:56.514Z,7.30
2019-01-15T05:13:35.303Z,6.87
2019-01-15T05:14:14.855Z,7.37
2019-01-15T05:14:53.681Z,7.20
2019-01-15T05:15:32.401Z,6.53
2019-01-15T05:16:11.148Z,7.60
2019-01-15T05:16:49.868Z,6.60
2019-01-15T05:17:28.630Z,7.67
2019-01-15T05:18:07.479Z,7.33
2019-01-15T05:18:46.244Z,7.50
2019-01-15T05:19:24.908Z,7.30
2019-01-15T05:20:03.570Z,6.60
2019-01-15T05:20:42.271Z,6.57
2019-01-15T05:21:20.989Z,7.37
2019-01-15T05:21:59.664Z,7.40
2019-01-15T05:22:38.447Z,7.43
2019-01-15T05:23:17.158Z,7.00
2019-01-15T05:23:55.898Z,8.03
2019-01-15T05:24:34.541Z,6.80
2019-01-15T05:25:15.908Z,7.43
2019-01-15T05:25:54.638Z,6.77
2019-01-15T05:26:33.352Z,6.67
2019-01-15T05:27:12.131Z,6.77
2019-01-15T05:27:50.843Z,6.87
2019-01-15T05:28:29.624Z,6.50
2019-01-15T05:29:08.402Z,6.63
2019-01-15T05:29:47.195Z,7.27
2019-01-15T05:30:30.298Z,7.07
2019-01-15T05:31:09.085Z,6.90
2019-01-15T05:31:47.755Z,6.60
2019-01-15T05:32:26.444Z,6.40
2019-01-15T05:33:05.116Z,7.13
2019-01-15T05:33:43.877Z,6.80
2019-01-15T05:34:22.585Z,6.57
2019-01-15T05:35:01.340Z,6.90
2019-01-15T05:35:40.028Z,7.00
2019-01-15T05:36:18.748Z,7.27
2019-01-15T05:36:57.377Z,6.70
2019-01-15T05:37:36.162Z,6.53
2019-01-15T05:38:14.721Z,7.73
2019-01-15T05:38:53.397Z,6.70
2019-01-15T05:39:32.088Z,6.97
2019-01-15T05:40:11.505Z,6.17
2019-01-15T05:40:50.306Z,6.60
2019-01-15T05:41:29.049Z,6.63
2019-01-15T05:42:07.755Z,6.10
2019-01-15T05:42:46.565Z,7.10
2019-01-15T05:43:25.358Z,6.67
2019-01-15T05:44:04.195Z,6.60
2019-01-15T05:44:42.881Z,5.90
2019-01-15T05:45:28.598Z,7.03
2019-01-15T05:46:07.245Z,6.33
2019-01-15T05:46:45.837Z,6.53
2019-01-15T05:47:26.089Z,6.83
2019-01-15T05:48:13.272Z,6.63
2019-01-15T05:48:52.149Z,6.40
2019-01-15T05:49:30.899Z,6.30
2019-01-15T05:50:11.674Z,6.80
2019-01-15T05:50:55.524Z,7.20
2019-01-15T05:51:37.247Z,7.43
2019-01-15T05:52:15.909Z,6.80
2019-01-15T05:52:54.655Z,7.30
2019-01-15T05:53:33.322Z,7.00
2019-01-15T05:54:12.043Z,6.67
2019-01-15T05:54:50.822Z,6.60
2019-01-15T05:55:29.593Z,7.47
2019-01-15T05:56:09.471Z,6.97
2019-01-15T05:56:48.397Z,6.40
2019-01-15T05:57:27.119Z,7.20
2019-01-15T05:58:05.829Z,6.40
2019-01-15T05:58:44.562Z,7.73
2019-01-15T05:59:23.244Z,6.87
2019-01-15T06:00:01.975Z,6.80
2019-01-15T06:00:40.722Z,6.57
2019-01-15T06:01:19.496Z,6.17
2019-01-15T06:01:58.263Z,6.93
2019-01-15T06:02:36.896Z,6.90
2019-01-15T06:03:15.709Z,6.67
2019-01-15T06:03:54.692Z,7.27
2019-01-15T06:04:33.342Z,6.67
2019-01-15T06:05:12.633Z,6.70
2019-01-15T06:05:51.223Z,6.80
2019-01-15T06:06:29.994Z,6.20
2019-01-15T06:07:08.656Z,6.33
2019-01-15T06:07:47.393Z,6.13
2019-01-15T06:08:26.196Z,6.60
2019-01-15T06:09:05.619Z,6.90
2019-01-15T06:09:44.385Z,6.83
2019-01-15T06:10:23.172Z,6.10
2019-01-15T06:11:01.889Z,6.73
2019-01-15T06:11:40.612Z,6.97
2019-01-15T06:12:19.239Z,6.50
2019-01-15T06:12:57.922Z,6.97
2019-01-15T06:13:42.610Z,6.10
2019-01-15T06:14:16.581Z,6.43
2019-01-15T06:14:55.259Z,7.37
2019-01-15T06:15:33.909Z,6.53
2019-01-15T06:16:12.889Z,6.27
2019-01-15T06:16:51.677Z,6.70
2019-01-15T06:17:30.303Z,6.20
2019-01-15T06:18:09.008Z,6.83
2019-01-15T06:18:47.767Z,6.47
2019-01-15T06:19:26.617Z,6.37
2019-01-15T06:20:05.257Z,5.93
2019-01-15T06:20:44.119Z,7.40
2019-01-15T06:21:22.759Z,6.50
2019-01-15T06:22:01.388Z,6.60
2019-01-15T06:22:40.089Z,6.93
2019-01-15T06:23:18.731Z,6.20
2019-01-15T06:23:57.434Z,6.70
2019-01-15T06:24:36.155Z,6.87
2019-01-15T06:25:15.006Z,6.67
2019-01-15T06:25:53.732Z,6.13
2019-01-15T06:26:32.460Z,5.30
2019-01-15T06:27:11.177Z,6.60
2019-01-15T06:27:49.846Z,6.13
2019-01-15T06:28:28.676Z,5.70
2019-01-15T06:29:07.310Z,6.33
2019-01-15T06:29:46.018Z,6.60
2019-01-15T06:30:25.017Z,7.17
2019-01-15T06:31:03.658Z,6.43
2019-01-15T06:31:42.430Z,6.27
2019-01-15T06:32:21.053Z,6.27
2019-01-15T06:32:59.787Z,6.77
2019-01-15T06:33:38.544Z,6.80
2019-01-15T06:34:17.310Z,6.23
2019-01-15T06:34:56.176Z,6.30
2019-01-15T06:35:34.932Z,6.40
2019-01-15T06:36:14.038Z,6.00
2019-01-15T06:36:52.848Z,7.10
2019-01-15T06:37:31.561Z,6.77
2019-01-15T06:38:10.332Z,6.23
2019-01-15T06:38:49.163Z,5.80
2019-01-15T06:39:27.768Z,5.80
2019-01-15T06:40:06.676Z,6.17
2019-01-15T06:40:45.424Z,6.07
2019-01-15T06:41:24.063Z,6.80
2019-01-15T06:42:02.939Z,6.50
2019-01-15T06:42:41.697Z,6.40
2019-01-15T06:43:20.428Z,6.23
2019-01-15T06:43:59.283Z,6.30
2019-01-15T06:44:37.951Z,6.43
2019-01-15T06:45:19.653Z,6.07
2019-01-15T06:45:58.328Z,6.40
2019-01-15T06:46:37.016Z,6.47
2019-01-15T06:47:15.695Z,5.90
2019-01-15T06:47:54.406Z,5.87
2019-01-15T06:48:33.148Z,5.97
2019-01-15T06:49:11.852Z,6.80
2019-01-15T06:49:50.539Z,6.97
2019-01-15T06:50:29.218Z,6.40
2019-01-15T06:51:08.023Z,6.03
2019-01-15T06:51:46.705Z,6.30
2019-01-15T06:52:25.374Z,6.07
2019-01-15T06:53:04.169Z,6.40
2019-01-15T06:53:42.857Z,6.17
2019-01-15T06:54:21.607Z,6.17
2019-01-15T06:55:00.296Z,7.20
2019-01-15T06:55:39.031Z,6.13
2019-01-15T06:56:17.691Z,6.27
2019-01-15T06:56:56.410Z,6.50
2019-01-15T06:57:35.085Z,6.60
2019-01-15T06:58:14.684Z,6.40
2019-01-15T06:58:53.319Z,6.17
2019-01-15T06:59:32.032Z,6.27
2019-01-15T07:00:15.249Z,5.60
2019-01-15T07:00:54.042Z,6.50
2019-01-15T07:01:32.787Z,6.80
2019-01-15T07:02:11.429Z,6.00
2019-01-15T07:02:50.169Z,6.40
2019-01-15T07:03:28.936Z,5.80
2019-01-15T07:04:07.732Z,6.27
2019-01-15T07:04:46.365Z,6.10
2019-01-15T07:05:25.346Z,7.20
2019-01-15T07:06:04.021Z,6.20
2019-01-15T07:06:42.717Z,6.63
2019-01-15T07:07:21.482Z,6.30
2019-01-15T07:08:00.168Z,6.30
2019-01-15T07:08:38.992Z,6.00
2019-01-15T07:09:17.651Z,6.27
2019-01-15T07:09:56.449Z,6.57
2019-01-15T07:10:40.129Z,6.30
2019-01-15T07:11:18.942Z,7.00
2019-01-15T07:11:57.631Z,6.47
2019-01-15T07:12:36.327Z,5.50
2019-01-15T07:13:15.058Z,6.00
2019-01-15T07:13:57.177Z,6.00
2019-01-15T07:14:33.939Z,6.47
2019-01-15T07:15:12.669Z,6.77
2019-01-15T07:15:52.771Z,5.70
2019-01-15T07:16:31.632Z,6.20
2019-01-15T07:17:10.380Z,5.77
2019-01-15T07:17:49.088Z,6.30
2019-01-15T07:18:28.027Z,6.07
2019-01-15T07:19:06.765Z,6.03
2019-01-15T07:19:45.484Z,6.77
2019-01-15T07:20:24.283Z,6.70
2019-01-15T07:21:02.998Z,6.53
2019-01-15T07:21:41.882Z,5.60
2019-01-15T07:22:20.531Z,5.83
2019-01-15T07:22:59.314Z,6.03
2019-01-15T07:23:38.149Z,5.57
2019-01-15T07:24:17.045Z,5.80
2019-01-15T07:24:55.763Z,6.80
2019-01-15T07:25:34.575Z,6.20
2019-01-15T07:26:13.271Z,6.40
2019-01-15T07:26:52.013Z,6.80
2019-01-15T07:27:30.689Z,6.07
2019-01-15T07:28:09.460Z,6.50
2019-01-15T07:28:48.129Z,6.53
2019-01-15T07:29:26.835Z,6.47
2019-01-15T07:30:05.508Z,6.50
2019-01-15T07:30:49.884Z,6.40
2019-01-15T07:31:28.672Z,6.60
2019-01-15T07:32:07.408Z,5.53
2019-01-15T07:32:46.075Z,6.43
2019-01-15T07:33:27.167Z,6.33
2019-01-15T07:34:05.880Z,6.50
2019-01-15T07:34:44.605Z,6.80
2019-01-15T07:35:23.294Z,5.93
2019-01-15T07:36:02.017Z,6.20
2019-01-15T07:36:40.714Z,6.20
2019-01-15T07:37:19.482Z,6.37
2019-01-15T07:37:58.234Z,6.07
2019-01-15T07:38:36.840Z,6.30
2019-01-15T07:39:15.591Z,5.70
2019-01-15T07:39:54.253Z,5.90
2019-01-15T07:40:32.955Z,6.20
2019-01-15T07:41:11.647Z,6.27
2019-01-15T07:41:50.309Z,6.83
2019-01-15T07:42:29.114Z,6.40
2019-01-15T07:43:07.775Z,6.60
2019-01-15T07:43:46.570Z,5.97
2019-01-15T07:44:25.364Z,6.30
2019-01-15T07:45:04.056Z,6.37
2019-01-15T07:45:42.696Z,5.60
2019-01-15T07:46:21.404Z,6.23
2019-01-15T07:47:00.098Z,6.20
2019-01-15T07:47:38.688Z,6.60
2019-01-15T07:48:17.413Z,5.80
2019-01-15T07:48:56.167Z,6.10
2019-01-15T07:49:34.875Z,6.17
2019-01-15T07:50:16.584Z,5.80
2019-01-15T07:50:55.253Z,6.70
2019-01-15T07:51:33.917Z,5.57
2019-01-15T07:52:12.568Z,6.03
2019-01-15T07:52:51.449Z,6.10
2019-01-15T07:53:30.176Z,6.03
2019-01-15T07:54:08.834Z,5.93
2019-01-15T07:54:47.566Z,6.10
2019-01-15T07:55:26.308Z,6.90
2019-01-15T07:56:04.934Z,5.47
2019-01-15T07:56:43.590Z,5.67
2019-01-15T07:57:22.326Z,5.33
2019-01-15T07:58:00.955Z,6.77
2019-01-15T07:58:39.574Z,6.00
2019-01-15T07:59:18.231Z,5.77
2019-01-15T07:59:56.986Z,6.10
2019-01-15T08:00:35.702Z,6.00
2019-01-15T08:01:14.613Z,6.50
2019-01-15T08:01:53.587Z,6.10
2019-01-15T08:02:32.284Z,6.30
2019-01-15T08:03:10.934Z,6.57
2019-01-15T08:03:49.691Z,6.43
2019-01-15T08:04:28.399Z,6.10
2019-01-15T08:05:07.079Z,6.03
2019-01-15T08:05:45.843Z,6.07
2019-01-15T08:06:24.665Z,6.13
2019-01-15T08:07:03.401Z,5.60
2019-01-15T08:07:42.037Z,5.90
2019-01-15T08:08:22.055Z,6.00
2019-01-15T08:09:00.721Z,5.83
2019-01-15T08:09:39.428Z,5.90
2019-01-15T08:10:19.151Z,6.17
2019-01-15T08:10:58.083Z,5.57
2019-01-15T08:11:36.736Z,6.30
2019-01-15T08:12:15.386Z,6.00
2019-01-15T08:12:54.141Z,6.50
2019-01-15T08:13:32.937Z,6.73
2019-01-15T08:14:12.125Z,5.60
2019-01-15T08:14:51.059Z,6.03
2019-01-15T08:15:29.992Z,6.40
2019-01-15T08:16:08.836Z,5.50
2019-01-15T08:16:47.502Z,6.23
2019-01-15T08:17:26.107Z,6.10
2019-01-15T08:18:04.841Z,5.90
2019-01-15T08:18:43.591Z,6.87
2019-01-15T08:19:22.327Z,5.73
2019-01-15T08:20:00.967Z,6.27
2019-01-15T08:20:39.701Z,7.00
2019-01-15T08:21:18.451Z,5.47
2019-01-15T08:21:57.065Z,6.47
2019-01-15T08:22:35.817Z,6.70
2019-01-15T08:23:14.597Z,6.20
2019-01-15T08:23:53.261Z,6.10
2019-01-15T08:24:31.955Z,6.17
2019-01-15T08:25:10.933Z,6.40
2019-01-15T08:25:49.602Z,6.57
2019-01-15T08:26:28.357Z,5.90
2019-01-15T08:27:07.065Z,6.10
2019-01-15T08:27:45.786Z,6.00
2019-01-15T08:28:24.538Z,5.90
2019-01-15T08:29:03.290Z,6.03
2019-01-15T08:29:41.999Z,5.70
2019-01-15T08:30:23.282Z,6.37
2019-01-15T08:31:01.947Z,6.27
2019-01-15T08:31:40.676Z,5.57
2019-01-15T08:32:19.352Z,6.00
2019-01-15T08:32:58.135Z,6.30
2019-01-15T08:33:36.789Z,6.13
2019-01-15T08:34:15.408Z,6.10
2019-01-15T08:34:54.183Z,6.77
2019-01-15T08:35:32.956Z,6.40
2019-01-15T08:36:11.617Z,6.10
2019-01-15T08:36:50.310Z,6.30
2019-01-15T08:37:29.012Z,6.03